createdAt,value
2022-12-25T00:01:19.103Z,100516.53
2022-12-25T00:03:46.882Z,100529.53
2022-12-25T00:06:21.876Z,100537.38
2022-12-25T00:08:52.069Z,100542.75
2022-12-25T00:11:25.423Z,100550.22
2022-12-25T00:13:53.282Z,100550.41
2022-12-25T00:16:26.527Z,100548.16
2022-12-25T00:18:55.146Z,100544.47
2022-12-25T00:21:23.407Z,100546.72
2022-12-25T00:24:01.718Z,100545.87
2022-12-25T00:26:29.441Z,100552.09
2022-12-25T00:28:59.843Z,100563.06
2022-12-25T00:31:28.362Z,100572.03
2022-12-25T00:33:56.087Z,100571.44
2022-12-25T00:36:24.221Z,100573.63
2022-12-25T00:38:53.805Z,100576.31
2022-12-25T00:41:39.508Z,100576.97
2022-12-25T00:44:10.279Z,100571.97
2022-12-25T00:46:38.025Z,100574.66
2022-12-25T00:49:05.948Z,100578.59
2022-12-25T00:51:33.813Z,100581.47
2022-12-25T00:54:01.551Z,100585.63
2022-12-25T00:56:29.334Z,100609.66
2022-12-25T00:58:57.176Z,100612.12
2022-12-25T01:01:24.837Z,100606.34
2022-12-25T01:03:54.796Z,100594.56
2022-12-25T01:06:22.434Z,100599.31
2022-12-25T01:09:04.038Z,100594.16
2022-12-25T01:11:32.742Z,100597.22
2022-12-25T01:14:03.471Z,100600.31
2022-12-25T01:16:31.582Z,100595.97
2022-12-25T01:18:59.281Z,100600.09
2022-12-25T01:21:27.130Z,100599.47
2022-12-25T01:23:55.418Z,100601.31
2022-12-25T01:26:27.301Z,100604.44
2022-12-25T01:28:55.464Z,100612.50
2022-12-25T01:31:25.227Z,100603.00
2022-12-25T01:33:54.368Z,100604.28
2022-12-25T01:36:26.841Z,100604.69
2022-12-25T01:38:55.641Z,100601.41
2022-12-25T01:41:26.442Z,100614.03
2022-12-25T01:44:00.307Z,100624.34
2022-12-25T01:46:28.137Z,100625.38
2022-12-25T01:49:01.890Z,100619.81
2022-12-25T01:51:37.295Z,100612.97
2022-12-25T01:54:11.727Z,100616.69
2022-12-25T01:56:41.491Z,100614.19
2022-12-25T01:59:10.183Z,100614.19
2022-12-25T02:01:37.989Z,100607.56
2022-12-25T02:04:19.145Z,100604.88
2022-12-25T02:06:49.782Z,100617.06
2022-12-25T02:09:17.509Z,100614.75
2022-12-25T02:11:58.643Z,100611.59
2022-12-25T02:14:28.875Z,100606.91
2022-12-25T02:17:03.571Z,100609.19
2022-12-25T02:19:40.488Z,100609.59
2022-12-25T02:22:16.148Z,100616.56
2022-12-25T02:24:50.955Z,100611.78
2022-12-25T02:27:56.755Z,100606.81
2022-12-25T02:30:24.435Z,100609.50
2022-12-25T02:33:28.085Z,100617.78
2022-12-25T02:35:58.065Z,100623.97
2022-12-25T02:38:37.703Z,100623.19
2022-12-25T02:41:14.864Z,100631.44
2022-12-25T02:44:10.471Z,100632.09
2022-12-25T02:46:58.090Z,100633.56
2022-12-25T02:49:45.222Z,100636.00
2022-12-25T02:52:34.735Z,100635.56
2022-12-25T02:55:31.495Z,100632.25
2022-12-25T02:58:19.377Z,100632.25
2022-12-25T03:01:12.542Z,100632.44
2022-12-25T03:03:59.514Z,100635.16
2022-12-25T03:06:46.601Z,100648.41
2022-12-25T03:09:41.533Z,100648.03
2022-12-25T03:12:26.145Z,100656.53
2022-12-25T03:15:10.495Z,100653.03
2022-12-25T03:17:38.151Z,100662.12
2022-12-25T03:20:24.609Z,100667.84
2022-12-25T03:23:10.547Z,100657.09
2022-12-25T03:25:55.496Z,100652.94
2022-12-25T03:28:23.166Z,100662.03
2022-12-25T03:31:15.020Z,100661.81
2022-12-25T03:34:07.451Z,100663.03
2022-12-25T03:36:40.455Z,100674.19
2022-12-25T03:39:37.357Z,100688.41
2022-12-25T03:42:25.479Z,100689.97
2022-12-25T03:45:33.813Z,100688.69
2022-12-25T03:48:19.146Z,100695.50
2022-12-25T03:51:09.944Z,100691.53
2022-12-25T03:54:16.436Z,100698.56
2022-12-25T03:57:02.377Z,100700.03
2022-12-25T03:59:47.631Z,100700.09
2022-12-25T04:02:32.690Z,100700.72
2022-12-25T04:05:17.939Z,100698.69
2022-12-25T04:08:02.312Z,100695.88
2022-12-25T04:10:47.312Z,100696.91
2022-12-25T04:13:33.747Z,100690.50
2022-12-25T04:16:18.879Z,100692.41
2022-12-25T04:19:04.017Z,100667.22
2022-12-25T04:21:51.444Z,100682.41
2022-12-25T04:24:39.201Z,100682.81
2022-12-25T04:27:24.094Z,100677.09
2022-12-25T04:30:09.005Z,100692.06
2022-12-25T04:32:54.239Z,100692.69
2022-12-25T04:35:39.042Z,100693.34
2022-12-25T04:38:08.918Z,100702.03
2022-12-25T04:40:39.135Z,100693.12
2022-12-25T04:43:10.116Z,100690.25
2022-12-25T04:45:37.680Z,100681.31
2022-12-25T04:48:05.647Z,100681.44
2022-12-25T04:50:33.233Z,100674.81
2022-12-25T04:53:00.842Z,100674.56
2022-12-25T04:55:28.443Z,100685.09
2022-12-25T04:57:56.077Z,100698.91
2022-12-25T05:00:23.696Z,100691.88
2022-12-25T05:02:51.524Z,100705.50
2022-12-25T05:05:21.347Z,100712.09
2022-12-25T05:07:51.416Z,100711.66
2022-12-25T05:10:19.211Z,100699.03
2022-12-25T05:12:46.871Z,100705.06
2022-12-25T05:15:14.612Z,100709.03
2022-12-25T05:17:42.167Z,100706.62
2022-12-25T05:20:12.265Z,100708.72
2022-12-25T05:22:39.892Z,100717.12
2022-12-25T05:25:08.014Z,100712.44
2022-12-25T05:27:37.870Z,100708.03
2022-12-25T05:30:10.336Z,100710.47
2022-12-25T05:32:38.001Z,100707.63
2022-12-25T05:35:06.537Z,100706.56
2022-12-25T05:37:34.104Z,100710.00
2022-12-25T05:40:04.027Z,100711.03
2022-12-25T05:42:31.722Z,100721.66
2022-12-25T05:45:01.721Z,100719.38
2022-12-25T05:47:31.422Z,100721.41
2022-12-25T05:49:59.003Z,100717.25
2022-12-25T05:52:26.603Z,100726.72
2022-12-25T05:54:54.208Z,100731.69
2022-12-25T05:57:21.788Z,100737.72
2022-12-25T05:59:49.361Z,100739.94
2022-12-25T06:02:17.172Z,100737.00
2022-12-25T06:04:47.144Z,100740.69
2022-12-25T06:07:14.852Z,100737.56
2022-12-25T06:09:42.443Z,100731.94
2022-12-25T06:12:14.915Z,100730.53
2022-12-25T06:14:42.656Z,100721.84
2022-12-25T06:17:12.605Z,100729.97
2022-12-25T06:19:40.336Z,100720.00
2022-12-25T06:22:07.975Z,100725.28
2022-12-25T06:24:36.048Z,100728.16
2022-12-25T06:27:03.684Z,100735.44
2022-12-25T06:29:31.288Z,100728.16
2022-12-25T06:31:59.086Z,100731.59
2022-12-25T06:34:27.197Z,100732.31
2022-12-25T06:36:56.442Z,100736.94
2022-12-25T06:39:27.634Z,100744.34
2022-12-25T06:41:55.744Z,100748.41
2022-12-25T06:44:23.410Z,100754.78
2022-12-25T06:46:51.037Z,100755.81
2022-12-25T06:49:18.983Z,100758.38
2022-12-25T06:51:46.651Z,100754.16
2022-12-25T06:54:16.809Z,100747.78
2022-12-25T06:56:44.445Z,100759.13
2022-12-25T06:59:12.340Z,100764.03
2022-12-25T07:01:52.106Z,100785.84
2022-12-25T07:04:26.375Z,100792.53
2022-12-25T07:06:54.144Z,100799.94
2022-12-25T07:09:21.743Z,100809.28
2022-12-25T07:11:49.405Z,100813.34
2022-12-25T07:14:24.423Z,100809.00
2022-12-25T07:16:54.678Z,100814.19
2022-12-25T07:19:22.398Z,100819.28
2022-12-25T07:21:52.395Z,100823.63
2022-12-25T07:24:23.463Z,100826.03
2022-12-25T07:26:51.980Z,100821.88
2022-12-25T07:29:20.489Z,100823.72
2022-12-25T07:31:48.659Z,100820.19
2022-12-25T07:34:21.201Z,100826.22
2022-12-25T07:36:48.882Z,100839.59
2022-12-25T07:39:19.601Z,100834.97
2022-12-25T07:41:47.205Z,100842.66
2022-12-25T07:44:15.139Z,100835.66
2022-12-25T07:46:42.848Z,100826.28
2022-12-25T07:49:11.346Z,100835.47
2022-12-25T07:51:39.143Z,100832.00
2022-12-25T07:54:06.833Z,100836.53
2022-12-25T07:56:34.602Z,100847.22
2022-12-25T07:59:02.317Z,100845.91
2022-12-25T08:01:30.535Z,100847.09
2022-12-25T08:04:00.850Z,100850.94
2022-12-25T08:06:32.591Z,100853.00
2022-12-25T08:09:06.605Z,100861.53
2022-12-25T08:11:34.321Z,100867.13
2022-12-25T08:14:02.155Z,100871.47
2022-12-25T08:16:31.879Z,100879.38
2022-12-25T08:18:59.854Z,100881.44
2022-12-25T08:21:27.656Z,100877.28
2022-12-25T08:23:55.429Z,100867.75
2022-12-25T08:26:25.418Z,100879.38
2022-12-25T08:28:53.105Z,100871.91
2022-12-25T08:31:31.985Z,100881.44
2022-12-25T08:34:00.356Z,100882.06
2022-12-25T08:36:28.203Z,100878.53
2022-12-25T08:39:02.660Z,100871.69
2022-12-25T08:41:31.081Z,100877.31
2022-12-25T08:43:59.113Z,100895.16
2022-12-25T08:46:26.819Z,100881.03
2022-12-25T08:48:54.953Z,100886.31
2022-12-25T08:51:23.470Z,100886.75
2022-12-25T08:53:54.862Z,100889.00
2022-12-25T08:56:22.554Z,100883.38
2022-12-25T08:58:50.142Z,100895.06
2022-12-25T09:01:17.918Z,100884.63
2022-12-25T09:03:45.765Z,100881.75
2022-12-25T09:06:15.998Z,100891.16
2022-12-25T09:08:49.171Z,100895.94
2022-12-25T09:11:18.836Z,100895.44
2022-12-25T09:13:47.191Z,100890.47
2022-12-25T09:16:18.689Z,100890.47
2022-12-25T09:18:49.010Z,100887.19
2022-12-25T09:21:18.099Z,100886.69
2022-12-25T09:23:45.784Z,100889.03
2022-12-25T09:26:15.820Z,100893.03
2022-12-25T09:28:48.742Z,100894.06
2022-12-25T09:31:18.899Z,100886.12
2022-12-25T09:33:50.554Z,100893.31
2022-12-25T09:36:18.725Z,100890.59
2022-12-25T09:38:46.387Z,100887.13
2022-12-25T09:41:16.955Z,100886.09
2022-12-25T09:44:12.498Z,100895.16
2022-12-25T09:46:48.369Z,100893.59
2022-12-25T09:49:21.993Z,100884.00
2022-12-25T09:51:54.484Z,100893.78
2022-12-25T09:54:45.787Z,100887.75
2022-12-25T09:57:15.316Z,100890.41
2022-12-25T09:59:48.720Z,100888.56
2022-12-25T10:02:50.771Z,100893.50
2022-12-25T10:05:56.427Z,100891.97
2022-12-25T10:08:50.876Z,100891.56
2022-12-25T10:11:21.294Z,100888.37
2022-12-25T10:14:10.938Z,100886.69
2022-12-25T10:17:13.812Z,100883.12
2022-12-25T10:19:59.295Z,100878.44
2022-12-25T10:22:34.708Z,100875.50
2022-12-25T10:25:06.957Z,100880.75
2022-12-25T10:27:43.745Z,100872.13
2022-12-25T10:30:15.918Z,100868.97
2022-12-25T10:32:45.601Z,100859.56
2022-12-25T10:35:24.699Z,100861.94
2022-12-25T10:38:03.776Z,100865.66
2022-12-25T10:40:53.058Z,100862.12
2022-12-25T10:43:34.711Z,100864.19
2022-12-25T10:46:02.557Z,100856.81
2022-12-25T10:48:33.246Z,100862.44
2022-12-25T10:51:08.885Z,100857.81
2022-12-25T10:53:42.527Z,100859.56
2022-12-25T10:56:21.278Z,100863.69
2022-12-25T10:58:48.926Z,100857.16
2022-12-25T11:01:17.031Z,100857.37
2022-12-25T11:03:53.321Z,100858.31
2022-12-25T11:06:26.677Z,100854.59
2022-12-25T11:08:57.595Z,100848.16
2022-12-25T11:11:28.999Z,100841.25
2022-12-25T11:14:02.775Z,100844.22
2022-12-25T11:16:40.889Z,100833.25
2022-12-25T11:19:25.393Z,100830.63
2022-12-25T11:21:56.451Z,100829.91
2022-12-25T11:24:28.268Z,100833.47
2022-12-25T11:26:59.165Z,100830.50
2022-12-25T11:29:41.379Z,100840.41
2022-12-25T11:32:31.205Z,100829.25
2022-12-25T11:35:00.312Z,100827.28
2022-12-25T11:37:27.903Z,100822.00
2022-12-25T11:39:57.696Z,100818.69
2022-12-25T11:42:27.426Z,100819.03
2022-12-25T11:45:02.569Z,100822.31
2022-12-25T11:47:45.244Z,100825.88
2022-12-25T11:50:31.945Z,100830.37
2022-12-25T11:53:03.299Z,100822.09
2022-12-25T11:55:44.338Z,100821.59
2022-12-25T11:58:33.429Z,100818.78
2022-12-25T12:01:05.708Z,100824.41
2022-12-25T12:03:42.558Z,100817.16
2022-12-25T12:06:29.675Z,100817.97
2022-12-25T12:09:23.121Z,100812.59
2022-12-25T12:12:13.049Z,100806.44
2022-12-25T12:14:50.569Z,100813.50
2022-12-25T12:17:21.045Z,100813.00
2022-12-25T12:19:48.957Z,100813.50
2022-12-25T12:22:28.683Z,100817.00
2022-12-25T12:25:07.358Z,100818.78
2022-12-25T12:27:43.022Z,100815.94
2022-12-25T12:30:24.581Z,100816.50
2022-12-25T12:33:01.274Z,100823.34
2022-12-25T12:35:32.390Z,100822.59
2022-12-25T12:38:12.948Z,100817.88
2022-12-25T12:41:03.366Z,100818.38
2022-12-25T12:43:55.674Z,100819.19
2022-12-25T12:46:37.743Z,100821.94
2022-12-25T12:49:33.715Z,100821.38
2022-12-25T12:52:08.767Z,100824.53
2022-12-25T12:54:57.020Z,100830.72
2022-12-25T12:57:32.603Z,100823.47
2022-12-25T13:00:11.321Z,100824.94
2022-12-25T13:02:51.249Z,100832.81
2022-12-25T13:05:21.927Z,100832.72
2022-12-25T13:08:01.572Z,100841.63
2022-12-25T13:10:40.730Z,100842.50
2022-12-25T13:13:15.292Z,100839.09
2022-12-25T13:15:48.211Z,100849.75
2022-12-25T13:18:16.125Z,100837.09
2022-12-25T13:20:56.193Z,100841.06
2022-12-25T13:23:36.392Z,100828.94
2022-12-25T13:26:14.164Z,100831.56
2022-12-25T13:28:42.470Z,100833.50
2022-12-25T13:31:21.253Z,100827.13
2022-12-25T13:34:01.909Z,100832.16
2022-12-25T13:36:37.017Z,100834.41
2022-12-25T13:39:10.860Z,100839.69
2022-12-25T13:42:05.623Z,100838.38
2022-12-25T13:44:54.835Z,100832.16
2022-12-25T13:47:26.913Z,100837.78
2022-12-25T13:49:56.914Z,100826.78
2022-12-25T13:52:36.397Z,100832.50
2022-12-25T13:55:13.215Z,100835.47
2022-12-25T13:58:02.292Z,100838.09
2022-12-25T14:00:37.678Z,100838.28
2022-12-25T14:03:16.159Z,100837.25
2022-12-25T14:05:43.861Z,100840.19
2022-12-25T14:08:23.032Z,100842.22
2022-12-25T14:10:52.469Z,100840.44
2022-12-25T14:13:23.414Z,100842.00
2022-12-25T14:15:53.410Z,100846.03
2022-12-25T14:18:26.033Z,100839.41
2022-12-25T14:21:05.607Z,100843.87
2022-12-25T14:23:46.819Z,100844.94
2022-12-25T14:26:25.175Z,100839.63
2022-12-25T14:29:17.594Z,100843.53
2022-12-25T14:31:48.286Z,100849.19
2022-12-25T14:34:19.706Z,100847.91
2022-12-25T14:36:48.453Z,100847.78
2022-12-25T14:39:38.585Z,100850.13
2022-12-25T14:42:20.608Z,100854.75
2022-12-25T14:45:26.782Z,100861.44
2022-12-25T14:48:00.011Z,100866.28
2022-12-25T14:50:27.531Z,100862.62
2022-12-25T14:52:55.607Z,100858.47
2022-12-25T14:55:26.776Z,100864.84
2022-12-25T14:57:58.635Z,100872.62
2022-12-25T15:00:40.636Z,100867.03
2022-12-25T15:03:24.898Z,100864.53
2022-12-25T15:06:03.019Z,100855.06
2022-12-25T15:08:32.936Z,100860.53
2022-12-25T15:11:02.860Z,100870.31
2022-12-25T15:13:32.338Z,100867.00
2022-12-25T15:16:00.119Z,100878.00
2022-12-25T15:18:33.182Z,100867.81
2022-12-25T15:21:01.079Z,100867.28
2022-12-25T15:23:28.888Z,100869.03
2022-12-25T15:25:59.174Z,100865.75
2022-12-25T15:28:26.822Z,100872.97
2022-12-25T15:30:54.583Z,100873.88
2022-12-25T15:33:22.186Z,100865.91
2022-12-25T15:35:49.861Z,100872.97
2022-12-25T15:38:19.878Z,100867.56
2022-12-25T15:40:48.321Z,100873.41
2022-12-25T15:43:40.577Z,100865.44
2022-12-25T15:46:06.705Z,100868.22
2022-12-25T15:48:34.392Z,100886.81
2022-12-25T15:51:02.036Z,100888.16
2022-12-25T15:53:29.705Z,100882.72
2022-12-25T15:55:57.393Z,100877.47
2022-12-25T15:58:27.500Z,100877.31
2022-12-25T16:00:57.471Z,100875.69
2022-12-25T16:03:27.501Z,100878.22
2022-12-25T16:05:55.910Z,100877.09
2022-12-25T16:08:28.464Z,100879.03
2022-12-25T16:10:57.235Z,100877.41
2022-12-25T16:13:27.283Z,100872.28
2022-12-25T16:15:55.289Z,100875.88
2022-12-25T16:18:23.994Z,100874.66
2022-12-25T16:20:53.053Z,100871.94
2022-12-25T16:23:23.451Z,100869.66
2022-12-25T16:25:51.634Z,100868.44
2022-12-25T16:28:19.537Z,100871.97
2022-12-25T16:30:47.253Z,100875.50
2022-12-25T16:33:15.407Z,100859.25
2022-12-25T16:35:44.144Z,100861.59
2022-12-25T16:38:11.766Z,100853.47
2022-12-25T16:40:39.366Z,100853.84
2022-12-25T16:43:07.053Z,100851.38
2022-12-25T16:45:39.961Z,100852.19
2022-12-25T16:48:08.798Z,100858.88
2022-12-25T16:50:39.500Z,100862.62
2022-12-25T16:53:09.304Z,100857.00
2022-12-25T16:55:38.772Z,100854.50
2022-12-25T16:58:07.441Z,100847.88
2022-12-25T17:00:37.804Z,100849.59
2022-12-25T17:03:05.790Z,100849.84
2022-12-25T17:05:34.503Z,100839.66
2022-12-25T17:08:02.115Z,100842.16
2022-12-25T17:10:29.758Z,100841.38
2022-12-25T17:12:57.319Z,100845.34
2022-12-25T17:15:25.176Z,100846.00
2022-12-25T17:17:52.776Z,100847.06
2022-12-25T17:20:22.612Z,100850.75
2022-12-25T17:22:50.926Z,100839.56
2022-12-25T17:25:20.888Z,100853.06
2022-12-25T17:27:51.123Z,100850.19
2022-12-25T17:30:18.799Z,100852.28
2022-12-25T17:32:47.124Z,100848.66
2022-12-25T17:35:14.788Z,100839.50
2022-12-25T17:37:42.405Z,100834.03
2022-12-25T17:40:13.787Z,100829.06
2022-12-25T17:42:41.582Z,100821.59
2022-12-25T17:45:09.874Z,100812.09
2022-12-25T17:47:37.547Z,100817.13
2022-12-25T17:50:05.412Z,100815.53
2022-12-25T17:52:34.128Z,100813.53
2022-12-25T17:55:01.716Z,100824.00
2022-12-25T17:57:29.319Z,100811.81
2022-12-25T17:59:56.879Z,100818.25
2022-12-25T18:02:27.049Z,100818.91
2022-12-25T18:04:57.169Z,100821.44
2022-12-25T18:07:24.778Z,100824.97
2022-12-25T18:09:52.449Z,100820.03
2022-12-25T18:12:29.411Z,100816.28
2022-12-25T18:14:57.258Z,100822.53
2022-12-25T18:17:24.859Z,100825.44
2022-12-25T18:19:52.452Z,100823.75
2022-12-25T18:22:20.064Z,100821.69
2022-12-25T18:24:47.629Z,100823.75
2022-12-25T18:27:15.476Z,100814.44
2022-12-25T18:29:43.151Z,100814.62
2022-12-25T18:32:16.267Z,100815.84
2022-12-25T18:34:43.942Z,100799.66
2022-12-25T18:37:11.540Z,100807.38
2022-12-25T18:39:41.694Z,100811.53
2022-12-25T18:42:26.878Z,100813.34
2022-12-25T18:44:54.523Z,100804.84
2022-12-25T18:47:22.139Z,100801.31
2022-12-25T18:49:49.810Z,100803.78
2022-12-25T18:52:48.031Z,100807.13
2022-12-25T18:55:12.971Z,100795.06
2022-12-25T18:57:42.786Z,100807.72
2022-12-25T19:00:11.154Z,100789.22
2022-12-25T19:02:40.102Z,100793.56
2022-12-25T19:05:11.074Z,100789.19
2022-12-25T19:07:38.724Z,100794.78
2022-12-25T19:10:07.190Z,100790.00
2022-12-25T19:12:34.887Z,100790.63
2022-12-25T19:15:05.278Z,100788.31
2022-12-25T19:17:34.303Z,100780.00
2022-12-25T19:20:10.227Z,100787.47
2022-12-25T19:22:37.856Z,100788.50
2022-12-25T19:25:06.024Z,100784.53
2022-12-25T19:27:36.182Z,100789.13
2022-12-25T19:30:04.094Z,100792.81
2022-12-25T19:32:31.739Z,100798.00
2022-12-25T19:35:04.275Z,100795.94
2022-12-25T19:37:34.810Z,100783.25
2022-12-25T19:40:02.445Z,100797.41
2022-12-25T19:42:30.079Z,100803.63
2022-12-25T19:45:03.136Z,100803.81
2022-12-25T19:47:35.119Z,100804.81
2022-12-25T19:50:03.764Z,100796.34
2022-12-25T19:52:33.872Z,100783.63
2022-12-25T19:55:01.729Z,100781.91
2022-12-25T19:57:29.323Z,100782.91
2022-12-25T19:59:56.907Z,100780.25
2022-12-25T20:02:25.165Z,100777.78
2022-12-25T20:04:59.252Z,100769.63
2022-12-25T20:07:26.980Z,100752.59
2022-12-25T20:10:02.155Z,100744.31
2022-12-25T20:12:29.763Z,100736.03
2022-12-25T20:14:57.338Z,100734.38
2022-12-25T20:17:27.618Z,100739.78
2022-12-25T20:19:55.198Z,100738.34
2022-12-25T20:22:22.813Z,100746.66
2022-12-25T20:24:55.060Z,100760.19
2022-12-25T20:27:22.819Z,100765.59
2022-12-25T20:29:50.401Z,100764.56
2022-12-25T20:32:18.083Z,100754.91
2022-12-25T20:34:45.709Z,100752.37
2022-12-25T20:37:13.311Z,100752.81
2022-12-25T20:39:43.417Z,100739.06
2022-12-25T20:42:12.058Z,100738.56
2022-12-25T20:44:42.415Z,100726.84
2022-12-25T20:47:10.049Z,100736.97
2022-12-25T20:49:39.807Z,100746.59
2022-12-25T20:52:07.767Z,100750.75
2022-12-25T20:54:38.178Z,100736.19
2022-12-25T20:57:10.798Z,100746.59
2022-12-25T20:59:43.753Z,100747.84
2022-12-25T21:02:35.096Z,100744.28
2022-12-25T21:05:01.245Z,100750.53
2022-12-25T21:07:30.351Z,100748.50
2022-12-25T21:09:59.205Z,100743.53
2022-12-25T21:12:27.137Z,100742.03
2022-12-25T21:14:54.837Z,100736.41
2022-12-25T21:17:22.519Z,100720.56
2022-12-25T21:19:50.103Z,100719.91
2022-12-25T21:22:17.716Z,100732.31
2022-12-25T21:24:45.288Z,100738.19
2022-12-25T21:27:12.867Z,100736.06
2022-12-25T21:29:40.472Z,100736.53
2022-12-25T21:32:25.640Z,100743.66
2022-12-25T21:34:53.211Z,100737.19
2022-12-25T21:37:20.809Z,100723.00
2022-12-25T21:39:50.961Z,100723.97
2022-12-25T21:42:20.049Z,100722.69
2022-12-25T21:44:50.211Z,100726.47
2022-12-25T21:47:17.992Z,100731.56
2022-12-25T21:50:03.193Z,100714.72
2022-12-25T21:52:30.795Z,100710.75
2022-12-25T21:55:00.499Z,100717.19
2022-12-25T21:57:28.153Z,100718.37
2022-12-25T21:59:55.699Z,100726.13
2022-12-25T22:02:23.626Z,100735.53
2022-12-25T22:04:51.420Z,100741.59
2022-12-25T22:07:18.033Z,100740.75
2022-12-25T22:09:52.492Z,100740.75
2022-12-25T22:12:39.581Z,100747.00
2022-12-25T22:15:11.661Z,100745.91
2022-12-25T22:18:01.548Z,100746.56
2022-12-25T22:20:34.763Z,100738.22
2022-12-25T22:23:05.549Z,100736.78
2022-12-25T22:25:35.603Z,100741.34
2022-12-25T22:28:03.223Z,100739.28
2022-12-25T22:30:33.280Z,100732.22
2022-12-25T22:33:02.869Z,100722.63
2022-12-25T22:35:32.551Z,100721.81
2022-12-25T22:38:00.204Z,100722.03
2022-12-25T22:40:28.127Z,100729.31
2022-12-25T22:42:56.474Z,100725.63
2022-12-25T22:45:24.801Z,100723.59
2022-12-25T22:47:52.498Z,100724.50
2022-12-25T22:50:20.120Z,100737.00
2022-12-25T22:52:47.688Z,100734.53
2022-12-25T22:55:18.576Z,100731.81
2022-12-25T22:57:46.334Z,100719.53
2022-12-25T23:00:14.679Z,100719.94
2022-12-25T23:02:42.459Z,100723.31
2022-12-25T23:05:17.307Z,100720.22
2022-12-25T23:07:45.009Z,100703.62
2022-12-25T23:10:12.634Z,100707.59
2022-12-25T23:12:57.699Z,100710.12
2022-12-25T23:15:25.877Z,100714.72
2022-12-25T23:18:13.519Z,100710.97
2022-12-25T23:20:57.913Z,100711.78
2022-12-25T23:23:48.573Z,100718.47
2022-12-25T23:26:20.382Z,100724.31
2022-12-25T23:29:05.571Z,100723.09
2022-12-25T23:31:36.382Z,100715.22
2022-12-25T23:34:05.646Z,100717.91
2022-12-25T23:36:38.312Z,100719.41
2022-12-25T23:39:10.493Z,100705.28
2022-12-25T23:41:42.440Z,100701.34
2022-12-25T23:44:12.450Z,100694.09
2022-12-25T23:46:41.339Z,100692.44
2022-12-25T23:49:21.265Z,100693.31
2022-12-25T23:51:52.011Z,100691.44
2022-12-25T23:54:23.274Z,100687.09
2022-12-25T23:56:51.269Z,100696.19
2022-12-25T23:59:19.105Z,100691.00
